createdAt,value
2019-05-26T00:00:11.269Z,1007.8
2019-05-26T00:01:13.549Z,1007.8
2019-05-26T00:02:15.718Z,1007.8
2019-05-26T00:03:18.358Z,1007.8
2019-05-26T00:04:20.809Z,1007.8
2019-05-26T00:05:22.998Z,1007.8
2019-05-26T00:06:25.855Z,1007.8
2019-05-26T00:07:31.289Z,1007.8
2019-05-26T00:08:33.566Z,1007.8
2019-05-26T00:09:35.729Z,1007.8
2019-05-26T00:10:38.024Z,1007.8
2019-05-26T00:11:40.193Z,1007.8
2019-05-26T00:12:42.322Z,1007.7
2019-05-26T00:13:44.555Z,1007.7
2019-05-26T00:14:46.748Z,1007.7
2019-05-26T00:15:48.928Z,1007.7
2019-05-26T00:16:51.796Z,1007.7
2019-05-26T00:17:54.371Z,1007.7
2019-05-26T00:18:57.235Z,1007.6
2019-05-26T00:19:59.454Z,1007.7
2019-05-26T00:21:02.079Z,1007.6
2019-05-26T00:22:05.313Z,1007.7
2019-05-26T00:23:08.240Z,1007.7
2019-05-26T00:24:10.729Z,1007.7
2019-05-26T00:25:12.997Z,1007.6
2019-05-26T00:26:15.483Z,1007.6
2019-05-26T00:27:17.684Z,1007.6
2019-05-26T00:28:19.954Z,1007.5
2019-05-26T00:29:22.176Z,1007.6
2019-05-26T00:30:24.428Z,1007.6
2019-05-26T00:31:26.617Z,1007.6
2019-05-26T00:32:29.212Z,1007.6
2019-05-26T00:33:31.391Z,1007.6
2019-05-26T00:34:33.537Z,1007.6
2019-05-26T00:35:35.764Z,1007.5
2019-05-26T00:36:37.964Z,1007.6
2019-05-26T00:37:50.615Z,1007.6
2019-05-26T00:38:53.718Z,1007.6
2019-05-26T00:39:55.995Z,1007.6
2019-05-26T00:40:58.178Z,1007.5
2019-05-26T00:42:00.359Z,1007.5
2019-05-26T00:43:02.617Z,1007.5
2019-05-26T00:44:05.136Z,1007.5
2019-05-26T00:45:07.372Z,1007.5
2019-05-26T00:46:09.576Z,1007.5
2019-05-26T00:47:11.741Z,1007.5
2019-05-26T00:48:14.616Z,1007.5
2019-05-26T00:49:16.804Z,1007.5
2019-05-26T00:50:19.079Z,1007.5
2019-05-26T00:51:21.550Z,1007.5
2019-05-26T00:52:23.805Z,1007.4
2019-05-26T00:53:25.997Z,1007.4
2019-05-26T00:54:28.181Z,1007.4
2019-05-26T00:55:30.414Z,1007.4
2019-05-26T00:56:32.599Z,1007.4
2019-05-26T00:57:34.863Z,1007.4
2019-05-26T00:58:37.313Z,1007.5
2019-05-26T00:59:40.059Z,1007.4
2019-05-26T01:00:42.228Z,1007.5
2019-05-26T01:01:44.362Z,1007.4
2019-05-26T01:02:46.599Z,1007.4
2019-05-26T01:03:48.780Z,1007.4
2019-05-26T01:04:51.042Z,1007.4
2019-05-26T01:05:53.238Z,1007.4
2019-05-26T01:06:55.412Z,1007.4
2019-05-26T01:08:07.057Z,1007.4
2019-05-26T01:09:09.972Z,1007.3
2019-05-26T01:10:12.225Z,1007.4
2019-05-26T01:11:14.772Z,1007.3
2019-05-26T01:12:17.322Z,1007.4
2019-05-26T01:13:19.509Z,1007.3
2019-05-26T01:14:21.693Z,1007.3
2019-05-26T01:15:23.859Z,1007.4
2019-05-26T01:16:26.038Z,1007.3
2019-05-26T01:17:28.300Z,1007.4
2019-05-26T01:18:30.791Z,1007.3
2019-05-26T01:19:33.321Z,1007.4
2019-05-26T01:20:36.311Z,1007.4
2019-05-26T01:21:38.512Z,1007.4
2019-05-26T01:22:41.352Z,1007.3
2019-05-26T01:23:43.833Z,1007.3
2019-05-26T01:24:46.011Z,1007.3
2019-05-26T01:25:48.176Z,1007.3
2019-05-26T01:26:50.646Z,1007.3
2019-05-26T01:27:52.816Z,1007.3
2019-05-26T01:28:54.969Z,1007.3
2019-05-26T01:29:57.218Z,1007.2
2019-05-26T01:30:59.703Z,1007.2
2019-05-26T01:32:02.609Z,1007.2
2019-05-26T01:33:05.506Z,1007.2
2019-05-26T01:34:08.282Z,1007.1
2019-05-26T01:35:10.829Z,1007.1
2019-05-26T01:36:13.007Z,1007.1
2019-05-26T01:37:15.531Z,1007.1
2019-05-26T01:38:24.692Z,1007.1
2019-05-26T01:39:27.287Z,1007.1
2019-05-26T01:40:29.475Z,1007.1
2019-05-26T01:41:31.929Z,1007.1
2019-05-26T01:42:34.183Z,1007.1
2019-05-26T01:43:36.351Z,1007.1
2019-05-26T01:44:38.608Z,1007.1
2019-05-26T01:45:40.763Z,1007.1
2019-05-26T01:46:42.952Z,1007.1
2019-05-26T01:47:45.119Z,1007.1
2019-05-26T01:48:47.313Z,1007
2019-05-26T01:49:50.257Z,1007.1
2019-05-26T01:50:52.410Z,1007
2019-05-26T01:51:54.594Z,1007
2019-05-26T01:52:56.765Z,1007
2019-05-26T01:53:58.884Z,1007
2019-05-26T01:55:01.759Z,1006.9
2019-05-26T01:56:04.006Z,1006.9
2019-05-26T01:57:06.219Z,1007
2019-05-26T01:58:08.682Z,1007
2019-05-26T01:59:11.669Z,1007
2019-05-26T02:00:13.830Z,1006.9
2019-05-26T02:01:15.998Z,1007
2019-05-26T02:02:18.245Z,1007
2019-05-26T02:03:20.824Z,1006.9
2019-05-26T02:04:23.051Z,1006.9
2019-05-26T02:05:25.846Z,1006.9
2019-05-26T02:06:28.029Z,1006.9
2019-05-26T02:07:31.011Z,1006.9
2019-05-26T02:08:40.022Z,1006.9
2019-05-26T02:09:43.202Z,1006.9
2019-05-26T02:10:45.368Z,1006.9
2019-05-26T02:11:47.608Z,1006.8
2019-05-26T02:12:50.473Z,1006.9
2019-05-26T02:13:52.633Z,1006.9
2019-05-26T02:14:55.111Z,1006.8
2019-05-26T02:15:57.549Z,1006.8
2019-05-26T02:16:59.732Z,1006.9
2019-05-26T02:18:02.186Z,1006.8
2019-05-26T02:19:04.374Z,1006.8
2019-05-26T02:20:06.554Z,1006.8
2019-05-26T02:21:08.732Z,1006.8
2019-05-26T02:22:11.244Z,1006.8
2019-05-26T02:23:13.810Z,1006.7
2019-05-26T02:24:16.412Z,1006.7
2019-05-26T02:25:18.883Z,1006.7
2019-05-26T02:26:21.089Z,1006.6
2019-05-26T02:27:23.275Z,1006.7
2019-05-26T02:28:25.436Z,1006.7
2019-05-26T02:29:27.636Z,1006.7
2019-05-26T02:30:30.110Z,1006.7
2019-05-26T02:31:32.275Z,1006.7
2019-05-26T02:32:35.151Z,1006.6
2019-05-26T02:33:37.319Z,1006.6
2019-05-26T02:34:40.158Z,1006.6
2019-05-26T02:35:42.387Z,1006.7
2019-05-26T02:36:44.647Z,1006.6
2019-05-26T02:37:47.157Z,1006.5
2019-05-26T02:39:03.564Z,1006.5
2019-05-26T02:40:06.207Z,1006.6
2019-05-26T02:41:08.678Z,1006.6
2019-05-26T02:42:11.172Z,1006.6
2019-05-26T02:43:14.697Z,1006.6
2019-05-26T02:44:16.938Z,1006.6
2019-05-26T02:45:19.072Z,1006.6
2019-05-26T02:46:21.656Z,1006.6
2019-05-26T02:47:24.246Z,1006.6
2019-05-26T02:48:26.829Z,1006.5
2019-05-26T02:49:29.352Z,1006.5
2019-05-26T02:50:31.542Z,1006.5
2019-05-26T02:51:34.065Z,1006.6
2019-05-26T02:52:36.875Z,1006.5
2019-05-26T02:53:39.517Z,1006.5
2019-05-26T02:54:41.734Z,1006.6
2019-05-26T02:55:43.954Z,1006.5
2019-05-26T02:56:46.848Z,1006.5
2019-05-26T02:57:49.499Z,1006.5
2019-05-26T02:58:52.024Z,1006.5
2019-05-26T02:59:54.500Z,1006.5
2019-05-26T03:00:56.685Z,1006.5
2019-05-26T03:02:04.888Z,1006.5
2019-05-26T03:03:07.419Z,1006.4
2019-05-26T03:04:09.932Z,1006.4
2019-05-26T03:05:12.408Z,1006.5
2019-05-26T03:06:15.417Z,1006.4
2019-05-26T03:07:17.692Z,1006.5
2019-05-26T03:08:19.922Z,1006.4
2019-05-26T03:09:24.583Z,1006.4
2019-05-26T03:10:27.194Z,1006.4
2019-05-26T03:11:29.966Z,1006.4
2019-05-26T03:12:32.397Z,1006.4
2019-05-26T03:13:34.655Z,1006.4
2019-05-26T03:14:37.154Z,1006.4
2019-05-26T03:15:39.650Z,1006.4
2019-05-26T03:16:42.169Z,1006.4
2019-05-26T03:17:44.357Z,1006.4
2019-05-26T03:18:46.877Z,1006.4
2019-05-26T03:19:50.067Z,1006.4
2019-05-26T03:20:52.827Z,1006.3
2019-05-26T03:21:55.292Z,1006.4
2019-05-26T03:22:57.511Z,1006.4
2019-05-26T03:23:59.741Z,1006.3
2019-05-26T03:25:02.236Z,1006.4
2019-05-26T03:26:04.696Z,1006.3
2019-05-26T03:27:07.200Z,1006.3
2019-05-26T03:28:09.662Z,1006.3
2019-05-26T03:29:11.906Z,1006.3
2019-05-26T03:30:14.396Z,1006.4
2019-05-26T03:31:17.149Z,1006.3
2019-05-26T03:32:19.978Z,1006.3
2019-05-26T03:33:22.189Z,1006.3
2019-05-26T03:34:24.984Z,1006.3
2019-05-26T03:35:27.434Z,1006.3
2019-05-26T03:36:30.002Z,1006.3
2019-05-26T03:37:32.502Z,1006.3
2019-05-26T03:38:35.635Z,1006.3
2019-05-26T03:39:46.771Z,1006.3
2019-05-26T03:40:49.736Z,1006.3
2019-05-26T03:41:52.259Z,1006.3
2019-05-26T03:42:55.100Z,1006.2
2019-05-26T03:43:57.664Z,1006.2
2019-05-26T03:44:59.952Z,1006.2
2019-05-26T03:46:02.255Z,1006.2
2019-05-26T03:47:04.819Z,1006.3
2019-05-26T03:48:07.029Z,1006.3
2019-05-26T03:49:09.649Z,1006.2
2019-05-26T03:50:12.842Z,1006.2
2019-05-26T03:51:15.498Z,1006.3
2019-05-26T03:52:17.666Z,1006.2
2019-05-26T03:53:20.572Z,1006.3
2019-05-26T03:54:23.113Z,1006.3
2019-05-26T03:55:26.239Z,1006.2
2019-05-26T03:56:28.895Z,1006.2
2019-05-26T03:57:31.747Z,1006.2
2019-05-26T03:58:34.655Z,1006.2
2019-05-26T03:59:37.066Z,1006.1
2019-05-26T04:00:39.562Z,1006.1
2019-05-26T04:01:42.319Z,1006.1
2019-05-26T04:02:44.944Z,1006.1
2019-05-26T04:03:47.515Z,1006.1
2019-05-26T04:04:50.079Z,1006.1
2019-05-26T04:05:52.961Z,1006.1
2019-05-26T04:06:55.182Z,1006.1
2019-05-26T04:07:58.072Z,1006.1
2019-05-26T04:09:07.876Z,1006
2019-05-26T04:10:10.082Z,1006
2019-05-26T04:11:12.877Z,1006
2019-05-26T04:12:15.187Z,1006
2019-05-26T04:13:18.152Z,1006
2019-05-26T04:14:21.010Z,1006
2019-05-26T04:15:23.201Z,1006
2019-05-26T04:16:25.463Z,1006
2019-05-26T04:17:27.649Z,1006
2019-05-26T04:18:29.885Z,1006
2019-05-26T04:19:32.356Z,1005.9
2019-05-26T04:20:35.163Z,1005.9
2019-05-26T04:21:37.676Z,1005.9
2019-05-26T04:22:40.281Z,1005.9
2019-05-26T04:23:43.205Z,1005.8
2019-05-26T04:24:45.414Z,1005.9
2019-05-26T04:25:47.670Z,1005.8
2019-05-26T04:26:49.854Z,1005.9
2019-05-26T04:27:52.340Z,1005.8
2019-05-26T04:28:54.848Z,1005.9
2019-05-26T04:29:57.017Z,1005.8
2019-05-26T04:30:59.672Z,1005.8
2019-05-26T04:32:03.070Z,1005.8
2019-05-26T04:33:05.625Z,1005.9
2019-05-26T04:34:08.099Z,1005.8
2019-05-26T04:35:10.511Z,1005.8
2019-05-26T04:36:12.750Z,1005.8
2019-05-26T04:37:15.500Z,1005.8
2019-05-26T04:38:18.636Z,1005.8
2019-05-26T04:39:21.523Z,1005.8
2019-05-26T04:40:28.317Z,1005.8
2019-05-26T04:41:31.150Z,1005.8
2019-05-26T04:42:33.753Z,1005.8
2019-05-26T04:43:36.361Z,1005.7
2019-05-26T04:44:38.580Z,1005.7
2019-05-26T04:45:41.121Z,1005.7
2019-05-26T04:46:43.645Z,1005.6
2019-05-26T04:47:45.856Z,1005.7
2019-05-26T04:48:48.342Z,1005.7
2019-05-26T04:49:50.919Z,1005.6
2019-05-26T04:50:53.471Z,1005.6
2019-05-26T04:51:56.205Z,1005.6
2019-05-26T04:53:07.417Z,1005.6
2019-05-26T04:54:10.026Z,1005.6
2019-05-26T04:55:12.958Z,1005.6
2019-05-26T04:56:15.828Z,1005.7
2019-05-26T04:57:18.018Z,1005.6
2019-05-26T04:58:20.251Z,1005.6
2019-05-26T04:59:22.803Z,1005.6
2019-05-26T05:00:25.275Z,1005.6
2019-05-26T05:01:28.003Z,1005.5
2019-05-26T05:02:30.596Z,1005.5
2019-05-26T05:03:32.762Z,1005.5
2019-05-26T05:04:34.902Z,1005.5
2019-05-26T05:05:37.133Z,1005.5
2019-05-26T05:06:39.379Z,1005.5
2019-05-26T05:07:41.625Z,1005.5
2019-05-26T05:08:43.829Z,1005.5
2019-05-26T05:09:46.020Z,1005.6
2019-05-26T05:10:48.536Z,1005.6
2019-05-26T05:11:50.749Z,1005.6
2019-05-26T05:12:52.984Z,1005.7
2019-05-26T05:13:55.484Z,1005.6
2019-05-26T05:14:57.593Z,1005.6
2019-05-26T05:15:59.782Z,1005.6
2019-05-26T05:17:01.946Z,1005.6
2019-05-26T05:18:04.196Z,1005.6
2019-05-26T05:19:06.382Z,1005.6
2019-05-26T05:20:08.607Z,1005.6
2019-05-26T05:21:11.483Z,1005.5
2019-05-26T05:22:13.664Z,1005.5
2019-05-26T05:23:15.902Z,1005.5
2019-05-26T05:24:18.087Z,1005.5
2019-05-26T05:25:20.334Z,1005.4
2019-05-26T05:26:22.503Z,1005.5
2019-05-26T05:27:25.149Z,1005.5
2019-05-26T05:28:27.316Z,1005.5
2019-05-26T05:29:29.477Z,1005.5
2019-05-26T05:30:31.706Z,1005.4
2019-05-26T05:31:34.496Z,1005.5
2019-05-26T05:32:37.159Z,1005.5
2019-05-26T05:33:40.007Z,1005.5
2019-05-26T05:34:42.561Z,1005.5
2019-05-26T05:35:44.810Z,1005.4
2019-05-26T05:36:46.968Z,1005.5
2019-05-26T05:37:49.214Z,1005.4
2019-05-26T05:38:51.401Z,1005.4
2019-05-26T05:39:53.644Z,1005.4
2019-05-26T05:41:00.571Z,1005.3
2019-05-26T05:42:03.781Z,1005.4
2019-05-26T05:43:06.030Z,1005.3
2019-05-26T05:44:08.255Z,1005.3
2019-05-26T05:45:10.517Z,1005.3
2019-05-26T05:46:12.680Z,1005.3
2019-05-26T05:47:14.910Z,1005.3
2019-05-26T05:48:17.478Z,1005.2
2019-05-26T05:49:19.657Z,1005.2
2019-05-26T05:50:21.883Z,1005.2
2019-05-26T05:51:24.063Z,1005.2
2019-05-26T05:52:26.305Z,1005.2
2019-05-26T05:53:28.468Z,1005.1
2019-05-26T05:54:31.004Z,1005.2
2019-05-26T05:55:33.176Z,1005.1
2019-05-26T05:56:35.338Z,1005.1
2019-05-26T05:57:37.868Z,1005.1
2019-05-26T05:58:40.395Z,1005
2019-05-26T05:59:42.627Z,1005
2019-05-26T06:00:45.127Z,1005
2019-05-26T06:01:47.319Z,1004.9
2019-05-26T06:02:50.141Z,1005
2019-05-26T06:03:52.773Z,1005
2019-05-26T06:04:55.015Z,1004.9
2019-05-26T06:05:57.187Z,1005
2019-05-26T06:06:59.720Z,1004.9
2019-05-26T06:08:02.252Z,1004.9
2019-05-26T06:09:04.757Z,1004.9
2019-05-26T06:10:07.319Z,1004.8
2019-05-26T06:11:17.507Z,1004.8
2019-05-26T06:12:20.124Z,1004.8
2019-05-26T06:13:22.400Z,1004.8
2019-05-26T06:14:24.663Z,1004.8
2019-05-26T06:15:26.845Z,1004.8
2019-05-26T06:16:29.017Z,1004.8
2019-05-26T06:17:31.627Z,1004.8
2019-05-26T06:18:33.822Z,1004.8
2019-05-26T06:19:36.276Z,1004.8
2019-05-26T06:20:38.450Z,1004.8
2019-05-26T06:21:40.669Z,1004.8
2019-05-26T06:22:42.886Z,1004.8
2019-05-26T06:23:45.153Z,1004.7
2019-05-26T06:24:47.405Z,1004.8
2019-05-26T06:25:49.595Z,1004.7
2019-05-26T06:26:52.498Z,1004.7
2019-05-26T06:27:55.020Z,1004.7
2019-05-26T06:28:58.275Z,1004.7
2019-05-26T06:30:00.514Z,1004.7
2019-05-26T06:31:03.720Z,1004.7
2019-05-26T06:32:06.642Z,1004.7
2019-05-26T06:33:10.584Z,1004.7
2019-05-26T06:34:12.843Z,1004.6
2019-05-26T06:35:15.335Z,1004.6
2019-05-26T06:36:17.503Z,1004.6
2019-05-26T06:37:19.736Z,1004.6
2019-05-26T06:38:22.324Z,1004.6
2019-05-26T06:39:24.838Z,1004.6
2019-05-26T06:40:27.027Z,1004.7
2019-05-26T06:41:34.611Z,1004.7
2019-05-26T06:42:37.343Z,1004.6
2019-05-26T06:43:39.966Z,1004.6
2019-05-26T06:44:54.268Z,1004.6
2019-05-26T06:45:56.443Z,1004.6
2019-05-26T06:46:58.717Z,1004.6
2019-05-26T06:48:00.932Z,1004.5
2019-05-26T06:49:03.168Z,1004.5
2019-05-26T06:50:05.349Z,1004.5
2019-05-26T06:51:08.171Z,1004.5
2019-05-26T06:52:10.393Z,1004.4
2019-05-26T06:53:12.588Z,1004.4
2019-05-26T06:54:14.839Z,1004.5
2019-05-26T06:55:17.101Z,1004.4
2019-05-26T06:56:19.550Z,1004.4
2019-05-26T06:57:22.136Z,1004.4
2019-05-26T06:58:24.388Z,1004.4
2019-05-26T06:59:26.585Z,1004.4
2019-05-26T07:00:29.557Z,1004.4
2019-05-26T07:01:31.786Z,1004.4
2019-05-26T07:02:34.037Z,1004.4
2019-05-26T07:03:36.649Z,1004.4
2019-05-26T07:04:39.277Z,1004.4
2019-05-26T07:05:41.448Z,1004.4
2019-05-26T07:06:43.698Z,1004.4
2019-05-26T07:07:45.866Z,1004.4
2019-05-26T07:08:48.706Z,1004.3
2019-05-26T07:09:50.909Z,1004.3
2019-05-26T07:10:56.881Z,1004.3
2019-05-26T07:12:01.720Z,1004.3
2019-05-26T07:13:13.086Z,1004.3
2019-05-26T07:14:33.712Z,1004.3
2019-05-26T07:15:35.877Z,1004.3
2019-05-26T07:16:39.220Z,1004.3
2019-05-26T07:17:41.337Z,1004.3
2019-05-26T07:18:43.885Z,1004.3
2019-05-26T07:19:46.121Z,1004.3
2019-05-26T07:20:48.831Z,1004.3
2019-05-26T07:21:51.650Z,1004.3
2019-05-26T07:22:53.931Z,1004.3
2019-05-26T07:23:56.404Z,1004.2
2019-05-26T07:24:58.967Z,1004.3
2019-05-26T07:26:01.119Z,1004.3
2019-05-26T07:27:03.793Z,1004.2
2019-05-26T07:28:06.404Z,1004.2
2019-05-26T07:29:08.656Z,1004.2
2019-05-26T07:30:11.253Z,1004.2
2019-05-26T07:31:13.754Z,1004.2
2019-05-26T07:32:15.991Z,1004.2
2019-05-26T07:33:18.192Z,1004.2
2019-05-26T07:34:20.478Z,1004.1
2019-05-26T07:35:23.169Z,1004.1
2019-05-26T07:36:25.457Z,1004.1
2019-05-26T07:37:27.709Z,1004.1
2019-05-26T07:38:29.889Z,1004
2019-05-26T07:39:32.148Z,1004.1
2019-05-26T07:40:35.021Z,1004.1
2019-05-26T07:41:37.621Z,1004.1
2019-05-26T07:42:40.451Z,1004
2019-05-26T07:43:42.649Z,1004.1
2019-05-26T07:44:45.153Z,1004
2019-05-26T07:45:47.340Z,1004
2019-05-26T07:46:50.529Z,1004
2019-05-26T07:47:52.741Z,1003.9
2019-05-26T07:48:55.417Z,1004
2019-05-26T07:49:58.012Z,1004
2019-05-26T07:51:00.480Z,1004
2019-05-26T07:52:02.797Z,1004
2019-05-26T07:53:05.738Z,1004
2019-05-26T07:54:25.922Z,1004
2019-05-26T07:55:28.540Z,1004
2019-05-26T07:56:31.123Z,1004
2019-05-26T07:57:33.340Z,1004
2019-05-26T07:58:35.536Z,1004
2019-05-26T07:59:38.150Z,1004
2019-05-26T08:00:40.335Z,1003.9
2019-05-26T08:01:43.284Z,1003.9
2019-05-26T08:02:45.468Z,1003.9
2019-05-26T08:03:48.166Z,1004
2019-05-26T08:04:50.416Z,1004
2019-05-26T08:05:52.638Z,1003.9
2019-05-26T08:06:54.912Z,1003.9
2019-05-26T08:08:13.494Z,1004
2019-05-26T08:09:16.152Z,1003.8
2019-05-26T08:10:18.337Z,1003.9
2019-05-26T08:11:20.588Z,1003.9
2019-05-26T08:12:30.517Z,1003.9
2019-05-26T08:13:33.257Z,1003.8
2019-05-26T08:14:35.457Z,1003.8
2019-05-26T08:15:37.958Z,1003.9
2019-05-26T08:16:40.240Z,1003.8
2019-05-26T08:17:42.506Z,1003.8
2019-05-26T08:18:44.791Z,1003.9
2019-05-26T08:19:47.630Z,1003.8
2019-05-26T08:20:50.130Z,1003.8
2019-05-26T08:21:54.872Z,1003.8
2019-05-26T08:22:57.510Z,1003.7
2019-05-26T08:24:00.378Z,1003.7
2019-05-26T08:25:02.578Z,1003.7
2019-05-26T08:26:04.839Z,1003.7
2019-05-26T08:27:07.299Z,1003.7
2019-05-26T08:28:09.585Z,1003.5
2019-05-26T08:29:11.897Z,1003.5
2019-05-26T08:30:14.148Z,1003.6
2019-05-26T08:31:16.476Z,1003.5
2019-05-26T08:32:18.690Z,1003.7
2019-05-26T08:33:20.971Z,1003.6
2019-05-26T08:34:23.226Z,1003.5
2019-05-26T08:35:25.412Z,1003.4
2019-05-26T08:36:27.649Z,1003.5
2019-05-26T08:37:29.894Z,1003.4
2019-05-26T08:38:32.172Z,1003.5
2019-05-26T08:39:34.432Z,1003.5
2019-05-26T08:40:37.117Z,1003.5
2019-05-26T08:41:41.500Z,1003.5
2019-05-26T08:42:51.528Z,1003.5
2019-05-26T08:43:58.047Z,1003.5
2019-05-26T08:45:05.005Z,1003.5
2019-05-26T08:46:09.485Z,1003.5
2019-05-26T08:47:11.963Z,1003.5
2019-05-26T08:48:20.341Z,1003.5
2019-05-26T08:49:24.202Z,1003.5
2019-05-26T08:50:35.078Z,1003.4
2019-05-26T08:51:38.773Z,1003.4
2019-05-26T08:52:44.417Z,1003.3
2019-05-26T08:53:49.068Z,1003.5
2019-05-26T08:54:52.018Z,1003.4
2019-05-26T08:55:56.525Z,1003.5
2019-05-26T08:57:03.905Z,1003.4
2019-05-26T08:58:11.720Z,1003.4
2019-05-26T08:59:18.350Z,1003.5
2019-05-26T09:00:22.715Z,1003.4
2019-05-26T09:01:32.118Z,1003.4
2019-05-26T09:02:48.531Z,1003.4
2019-05-26T09:04:02.907Z,1003.4
2019-05-26T09:05:07.092Z,1003.4
2019-05-26T09:06:14.238Z,1003.5
2019-05-26T09:07:21.241Z,1003.5
2019-05-26T09:08:31.569Z,1003.4
2019-05-26T09:09:35.283Z,1003.4
2019-05-26T09:10:42.542Z,1003.4
2019-05-26T09:11:48.138Z,1003.3
2019-05-26T09:13:01.971Z,1003.4
2019-05-26T09:14:07.161Z,1003.3
2019-05-26T09:15:11.082Z,1003.3
2019-05-26T09:16:14.736Z,1003.3
2019-05-26T09:17:26.401Z,1003.2
2019-05-26T09:18:34.895Z,1003.3
2019-05-26T09:19:39.943Z,1003.3
2019-05-26T09:20:51.918Z,1003.3
2019-05-26T09:21:59.034Z,1003.3
2019-05-26T09:23:04.074Z,1003.3
2019-05-26T09:24:10.890Z,1003.3
2019-05-26T09:25:19.067Z,1003.3
2019-05-26T09:26:30.579Z,1003.3
2019-05-26T09:27:39.464Z,1003.2
2019-05-26T09:28:43.317Z,1003.2
2019-05-26T09:29:46.567Z,1003.2
2019-05-26T09:30:51.144Z,1003.3
2019-05-26T09:31:54.636Z,1003.3
2019-05-26T09:32:58.529Z,1003.3
2019-05-26T09:34:01.500Z,1003.3
2019-05-26T09:35:06.274Z,1003.2
2019-05-26T09:36:10.691Z,1003.3
2019-05-26T09:37:13.791Z,1003.2
2019-05-26T09:38:16.396Z,1003.2
2019-05-26T09:39:19.054Z,1003.3
2019-05-26T09:40:21.657Z,1003.2
2019-05-26T09:41:23.999Z,1003.2
2019-05-26T09:42:26.241Z,1003.2
2019-05-26T09:43:28.632Z,1003.2
2019-05-26T09:44:30.872Z,1003.2
2019-05-26T09:45:33.081Z,1003.1
2019-05-26T09:46:35.346Z,1003.1
2019-05-26T09:47:37.595Z,1003.1
2019-05-26T09:48:40.535Z,1003.2
2019-05-26T09:49:43.116Z,1003.2
2019-05-26T09:50:45.242Z,1003.1
2019-05-26T09:51:47.748Z,1003.2
2019-05-26T09:52:49.933Z,1003.1
2019-05-26T09:54:02.371Z,1003.1
2019-05-26T09:55:04.842Z,1003
2019-05-26T09:56:07.091Z,1003
2019-05-26T09:57:09.307Z,1002.9
2019-05-26T09:58:11.653Z,1003.1
2019-05-26T09:59:13.915Z,1002.9
2019-05-26T10:00:16.729Z,1003
2019-05-26T10:01:20.444Z,1003
2019-05-26T10:02:22.683Z,1003.1
2019-05-26T10:03:25.228Z,1003
2019-05-26T10:04:27.690Z,1003
2019-05-26T10:05:30.134Z,1002.9
2019-05-26T10:06:33.457Z,1003
2019-05-26T10:07:35.931Z,1002.9
2019-05-26T10:08:38.228Z,1002.9
2019-05-26T10:09:40.414Z,1002.9
2019-05-26T10:10:42.779Z,1003
2019-05-26T10:11:45.276Z,1002.9
2019-05-26T10:12:47.485Z,1003
2019-05-26T10:13:49.842Z,1003
2019-05-26T10:14:52.082Z,1003
2019-05-26T10:15:54.398Z,1003
2019-05-26T10:16:57.080Z,1002.9
2019-05-26T10:17:59.334Z,1002.8
2019-05-26T10:19:01.980Z,1002.9
2019-05-26T10:20:04.374Z,1003
2019-05-26T10:21:07.184Z,1002.9
2019-05-26T10:22:09.410Z,1002.9
2019-05-26T10:23:11.747Z,1002.9
2019-05-26T10:24:14.327Z,1002.9
2019-05-26T10:25:16.598Z,1002.9
2019-05-26T10:26:18.855Z,1002.9
2019-05-26T10:27:21.091Z,1002.8
2019-05-26T10:28:24.363Z,1002.8
2019-05-26T10:29:28.766Z,1002.9
2019-05-26T10:30:31.047Z,1003
2019-05-26T10:31:33.642Z,1002.9
2019-05-26T10:32:36.186Z,1002.9
2019-05-26T10:33:39.290Z,1002.9
2019-05-26T10:34:41.616Z,1002.9
2019-05-26T10:35:44.418Z,1002.9
2019-05-26T10:36:47.013Z,1002.8
2019-05-26T10:37:49.311Z,1003
2019-05-26T10:38:51.898Z,1003
2019-05-26T10:39:54.233Z,1003
2019-05-26T10:40:56.520Z,1002.9
2019-05-26T10:41:58.673Z,1002.9
2019-05-26T10:43:00.871Z,1002.9
2019-05-26T10:44:03.081Z,1002.8
2019-05-26T10:45:05.556Z,1002.9
2019-05-26T10:46:08.095Z,1002.8
2019-05-26T10:47:10.304Z,1002.9
2019-05-26T10:48:12.554Z,1002.8
2019-05-26T10:49:14.770Z,1002.9
2019-05-26T10:50:17.311Z,1002.8
2019-05-26T10:51:19.793Z,1002.9
2019-05-26T10:52:22.328Z,1003
2019-05-26T10:53:24.590Z,1002.4
2019-05-26T10:54:26.773Z,1002.8
2019-05-26T10:55:29.055Z,1002.9
2019-05-26T10:56:31.239Z,1002.9
2019-05-26T10:57:33.704Z,1003
2019-05-26T10:58:35.992Z,1002.8
2019-05-26T10:59:38.176Z,1002.9
2019-05-26T11:00:40.716Z,1002.9
2019-05-26T11:01:42.929Z,1002.9
2019-05-26T11:02:46.019Z,1002.8
2019-05-26T11:03:48.829Z,1002.9
2019-05-26T11:04:51.682Z,1002.9
2019-05-26T11:05:53.920Z,1002.8
2019-05-26T11:06:56.114Z,1002.9
2019-05-26T11:07:58.771Z,1003
2019-05-26T11:09:01.722Z,1002.8
2019-05-26T11:10:04.309Z,1002.9
2019-05-26T11:11:06.533Z,1002.7
2019-05-26T11:12:09.107Z,1002.8
2019-05-26T11:13:11.342Z,1002.9
2019-05-26T11:14:13.589Z,1002.9
2019-05-26T11:15:15.855Z,1002.8
2019-05-26T11:16:18.343Z,1002.7
2019-05-26T11:17:20.498Z,1002.7
2019-05-26T11:18:22.773Z,1002.8
2019-05-26T11:19:24.989Z,1002.8
2019-05-26T11:20:27.200Z,1002.8
2019-05-26T11:21:29.694Z,1002.8
2019-05-26T11:22:31.988Z,1002.7
2019-05-26T11:23:34.176Z,1002.8
2019-05-26T11:24:36.395Z,1002.8
2019-05-26T11:25:39.057Z,1002.7
2019-05-26T11:26:41.654Z,1002.8
2019-05-26T11:27:43.891Z,1002.8
2019-05-26T11:28:46.088Z,1002.7
2019-05-26T11:29:48.274Z,1002.7
2019-05-26T11:30:50.452Z,1002.7
2019-05-26T11:31:53.525Z,1002.9
2019-05-26T11:32:59.850Z,1002.7
2019-05-26T11:34:02.124Z,1002.7
2019-05-26T11:35:05.086Z,1002.6
2019-05-26T11:36:07.273Z,1002.6
2019-05-26T11:37:09.851Z,1002.6
2019-05-26T11:38:12.133Z,1002.5
2019-05-26T11:39:14.369Z,1002.7
2019-05-26T11:40:16.574Z,1002.7
2019-05-26T11:41:19.051Z,1002.6
2019-05-26T11:42:21.611Z,1002.6
2019-05-26T11:43:23.783Z,1002.5
2019-05-26T11:44:25.980Z,1002.5
2019-05-26T11:45:28.515Z,1002.5
2019-05-26T11:46:30.694Z,1002.5
2019-05-26T11:47:32.967Z,1002.5
2019-05-26T11:48:35.143Z,1002.4
2019-05-26T11:49:42.472Z,1002.5
2019-05-26T11:50:45.360Z,1002.5
2019-05-26T11:51:47.846Z,1002.5
2019-05-26T11:52:50.106Z,1002.5
2019-05-26T11:53:52.390Z,1002.6
2019-05-26T11:54:54.654Z,1002.4
2019-05-26T11:55:56.854Z,1002.4
2019-05-26T11:56:59.355Z,1002.4
2019-05-26T11:58:01.599Z,1002.4
2019-05-26T11:59:03.804Z,1002.4
2019-05-26T12:00:06.431Z,1002.4
2019-05-26T12:01:12.508Z,1002.4
2019-05-26T12:02:15.051Z,1002.5
2019-05-26T12:03:17.569Z,1002.4
2019-05-26T12:04:19.774Z,1002.4
2019-05-26T12:05:21.995Z,1002.4
2019-05-26T12:06:24.135Z,1002.4
2019-05-26T12:07:26.568Z,1002.4
2019-05-26T12:08:29.487Z,1002.5
2019-05-26T12:09:32.389Z,1002.4
2019-05-26T12:10:34.613Z,1002.5
2019-05-26T12:11:37.477Z,1002.4
2019-05-26T12:12:39.792Z,1002.5
2019-05-26T12:13:42.015Z,1002.4
2019-05-26T12:14:45.096Z,1002.4
2019-05-26T12:15:47.515Z,1002.4
2019-05-26T12:16:50.201Z,1002.3
2019-05-26T12:17:52.810Z,1002.4
2019-05-26T12:18:55.555Z,1002.4
2019-05-26T12:19:58.452Z,1002.4
2019-05-26T12:21:00.833Z,1002.3
2019-05-26T12:22:04.209Z,1002.3
2019-05-26T12:23:06.919Z,1002.5
2019-05-26T12:24:09.613Z,1002.3
2019-05-26T12:25:24.661Z,1002.3
2019-05-26T12:26:42.030Z,1002.3
2019-05-26T12:28:01.287Z,1002.3
2019-05-26T12:29:11.831Z,1002.3
2019-05-26T12:30:14.589Z,1002.2
2019-05-26T12:31:22.023Z,1002.3
2019-05-26T12:32:28.004Z,1002.3
2019-05-26T12:33:30.660Z,1002.2
2019-05-26T12:34:33.682Z,1002.3
2019-05-26T12:35:36.657Z,1002.2
2019-05-26T12:36:39.833Z,1002.2
2019-05-26T12:37:54.977Z,1002.3
2019-05-26T12:39:00.886Z,1002.3
2019-05-26T12:40:03.456Z,1002.3
2019-05-26T12:41:06.801Z,1002.2
2019-05-26T12:42:17.372Z,1002.2
2019-05-26T12:43:22.985Z,1002.2
2019-05-26T12:44:50.216Z,1002.2
2019-05-26T12:45:53.606Z,1002.2
2019-05-26T12:46:56.913Z,1002.3
2019-05-26T12:47:59.704Z,1002.2
2019-05-26T12:49:02.755Z,1002.2
2019-05-26T12:50:10.058Z,1002.3
2019-05-26T12:51:21.186Z,1002.3
2019-05-26T12:52:25.282Z,1002.3
2019-05-26T12:53:27.804Z,1002.3
2019-05-26T12:54:31.894Z,1002.3
2019-05-26T12:55:36.714Z,1002.2
2019-05-26T12:56:40.496Z,1002.3
2019-05-26T12:57:43.860Z,1002.3
2019-05-26T12:58:47.097Z,1002.2
2019-05-26T13:00:00.175Z,1002.2
2019-05-26T13:01:09.540Z,1002.2
2019-05-26T13:02:17.870Z,1002.2
2019-05-26T13:03:33.451Z,1002.1
2019-05-26T13:04:37.540Z,1002.2
2019-05-26T13:05:43.487Z,1002.2
2019-05-26T13:06:54.289Z,1002.2
2019-05-26T13:07:58.944Z,1002.1
2019-05-26T13:09:01.199Z,1002.2
2019-05-26T13:10:24.769Z,1002.2
2019-05-26T13:11:27.164Z,1002
2019-05-26T13:12:29.763Z,1002.1
2019-05-26T13:13:40.069Z,1002.1